• Join FlightAware (Why Join?)
  • Login
  • US Flag 
09:57AM EDT


 

Airport Tracker/Info


-or-


 

Live Flight TrackerFlight Track Log ✈ RPA3321 ✈ 12-Aug-2013 ✈ KALB - KDCA

Flight Track Log - Related Links

Times and Time Zones

All times are in EDT time to prevent confusion due to time zone crossing. See the RPA3321 flight status page for this flight to view local times or setup timezone preferences in your user account.

Time Position Orientation Groundspeed Altitude Reporting Facility
EDT Latitude Longitude Course Direction KTS MPH feet Rate Location/Type
05:46AM 42.7736 -73.8064 119° Southeast 152 175 1,500  Level Boston Center
05:47AM 42.8294 -73.8500 330° Northwest 227 261 3,500 2,460 Climbing Boston Center
05:48AM 42.5153 -74.0095 171° South  Level Estimated
05:48AM 42.8953 -73.9053 328° Northwest 270 311 7,000  Level Boston Center
05:49AM 42.4373 -74.0783 180° South  Level Estimated
05:49AM 42.9256 -73.9797 299° West 254 292 9,700  Level Boston Center
05:50AM 42.3593 -74.1470 172° South  Level Estimated
05:50AM 42.9364 -74.0933 277° West 270 311 12,100  Level Boston Center
05:51AM 42.3139 -74.0371 119° Southeast  Level FlightAware Approximate
05:51AM 42.8631 -74.1256 198° South 227 261 14,600  Level Boston Center
05:52AM 42.7700 -74.0806 160° South 267 307 17,000 2,220 Climbing Boston Center
05:53AM 42.6622 -74.0269 160° South 323 372 19,100 1,860 Climbing Boston Center
05:54AM 42.5711 -73.9850 161° South 363 418 20,800 1,620 Climbing Boston Center
05:55AM 42.4697 -73.9375 161° South 384 442 22,400 1,080 Climbing Boston Center
05:56AM 42.3619 -73.8844 160° South 394 453 23,000 900 Climbing Boston Center
05:57AM 42.2564 -73.8342 161° South 404 465 24,200 1,260 Climbing Boston Center
05:58AM 42.1444 -73.7814 161° South 410 472 25,600 840 Climbing Boston Center
05:59AM 42.0347 -73.7286 160° South 415 478 26,000 180 Climbing Boston Center
06:00AM 41.9244 -73.7069 172° South 415 478 26,000  Level Boston Center
06:01AM 41.8258 -73.7606 202° Southwest 381 438 26,000  Level Boston Center
06:03AM 41.6775 -73.8511 205° Southwest 367 422 26,000  Level New York Center
06:04AM 41.5864 -73.9108 206° Southwest 379 436 26,000  Level New York Center
06:05AM 41.4933 -73.9672 204° Southwest 374 430 26,000  Level New York Center
06:06AM 41.3956 -74.0317 206° Southwest 374 430 26,000  Level New York Center
06:07AM 41.3025 -74.0881 204° Southwest 374 430 26,000  Level New York Center
06:08AM 41.2092 -74.1439 204° Southwest 374 430 26,000  Level New York Center
06:09AM 41.1097 -74.2022 204° Southwest 379 436 26,000  Level New York Center
06:10AM 41.0161 -74.2636 206° Southwest 384 442 26,000  Level New York Center
06:11AM 40.9186 -74.3217 204° Southwest 384 442 26,000  Level New York Center
06:12AM 40.8231 -74.3797 205° Southwest 384 442 26,000  Level New York Center
06:13AM 40.7275 -74.4406 206° Southwest 384 442 26,000 -240 Level New York Center
06:14AM 40.6342 -74.4983 205° Southwest 384 442 25,600 -660 Descending New York Center
06:15AM 40.5406 -74.5589 206° Southwest 384 442 24,700 -960 Descending New York Center
06:16AM 40.4489 -74.6219 208° Southwest 384 442 23,700 -960 Descending New York Center
06:17AM 40.3731 -74.7047 220° Southwest 377 434 22,800 -900 Descending New York Center
06:18AM 40.3669 -74.8269 266° West 316 364 22,000 -420 Descending New York Center
06:19AM 40.3317 -74.9422 248° West 327 376 22,000  Level New York Center
06:20AM 40.2839 -75.0508 240° Southwest 341 392 22,000  Level New York Center
06:21AM 40.2342 -75.1592 239° Southwest 346 398 22,000  Level New York Center
06:22AM 40.1842 -75.2700 239° Southwest 346 398 22,000  Level New York Center
06:23AM 40.1342 -75.3756 238° Southwest 352 405 22,000  Level New York Center
06:24AM 40.0678 -75.4689 227° Southwest 352 405 22,000  Level New York Center
06:25AM 40.0017 -75.5619 227° Southwest 352 405 22,000  Level New York Center
06:26AM 39.9356 -75.6494 225° Southwest 352 405 22,000  Level New York Center
06:27AM 39.8769 -75.7536 234° Southwest 357 411 22,000 -540 Level New York Center
06:28AM 39.8097 -75.8622 231° Southwest 357 411 21,000 -1,440 Descending New York Center
06:30AM 39.7000 -76.0333 230° Southwest 336 387 17,900 -1,680 Descending Potomac TRACON
06:31AM 39.6333 -76.1333 229° Southwest 334 384 16,300 -1,740 Descending Potomac TRACON
06:32AM 39.5833 -76.2167 232° Southwest 317 365 14,500 -1,740 Descending Potomac TRACON
06:33AM 39.5333 -76.3000 232° Southwest 315 362 13,000 -1,320 Descending Potomac TRACON
06:34AM 39.4667 -76.3833 224° Southwest 311 358 12,000 -540 Descending Potomac TRACON
06:35AM 39.4000 -76.4500 218° Southwest 314 361 12,000  Level Potomac TRACON
06:36AM 39.3333 -76.5167 218° Southwest 302 348 12,000 -600 Level Potomac TRACON
06:37AM 39.2833 -76.5667 218° Southwest 291 335 10,900 -1,020 Descending Potomac TRACON
06:38AM 39.2167 -76.6333 218° Southwest 284 327 10,000 -480 Descending Potomac TRACON
06:39AM 39.1500 -76.6833 210° Southwest 283 326 10,000 -300 Level Potomac TRACON
06:40AM 39.1000 -76.8667 251° West 274 315 9,200 -780 Descending Potomac TRACON
06:41AM 39.0667 -76.9500 243° Southwest 272 313 7,900 -1,500 Descending Potomac TRACON
06:42AM 39.0500 -77.0333 256° West 255 293 6,300 -1,440 Descending Potomac TRACON
06:43AM 39.0167 -77.1167 243° Southwest 223 257 5,100 -1,320 Descending Potomac TRACON
06:44AM 39.0000 -77.1667 247° West 194 223 3,800 -1,320 Descending Potomac TRACON
06:45AM 38.9500 -77.1500 165° South 217 250 2,600 -1,080 Descending Potomac TRACON
06:46AM 38.9167 -77.1000 131° Southeast 192 221 1,700 -900 Descending Potomac TRACON
06:47AM 38.9000 -77.0667 123° Southeast 152 175 800 -900 Descending Potomac TRACON